sensor_id;sensor_type;location;lat;lon;timestamp;temperature;humidity
46043;DHT22;32533;-33.854;18.542;2022-09-16T00:01:16;20.00;85.80
46043;DHT22;32533;-33.854;18.542;2022-09-16T00:03:43;20.00;86.20
46043;DHT22;32533;-33.854;18.542;2022-09-16T00:06:19;20.00;86.40
46043;DHT22;32533;-33.854;18.542;2022-09-16T00:08:46;20.00;86.50
46043;DHT22;32533;-33.854;18.542;2022-09-16T00:11:14;20.00;86.60
46043;DHT22;32533;-33.854;18.542;2022-09-16T00:13:41;20.00;86.70
46043;DHT22;32533;-33.854;18.542;2022-09-16T00:16:09;20.00;86.90
46043;DHT22;32533;-33.854;18.542;2022-09-16T00:18:36;20.00;87.00
46043;DHT22;32533;-33.854;18.542;2022-09-16T00:21:07;20.00;87.00
46043;DHT22;32533;-33.854;18.542;2022-09-16T00:23:34;20.00;87.00
46043;DHT22;32533;-33.854;18.542;2022-09-16T00:26:01;20.00;87.00
46043;DHT22;32533;-33.854;18.542;2022-09-16T00:28:27;20.00;86.90
46043;DHT22;32533;-33.854;18.542;2022-09-16T00:30:57;20.00;86.90
46043;DHT22;32533;-33.854;18.542;2022-09-16T00:33:23;20.00;86.90
46043;DHT22;32533;-33.854;18.542;2022-09-16T00:35:50;20.00;86.90
46043;DHT22;32533;-33.854;18.542;2022-09-16T00:38:17;20.00;86.90
46043;DHT22;32533;-33.854;18.542;2022-09-16T00:40:48;20.00;86.90
46043;DHT22;32533;-33.854;18.542;2022-09-16T00:43:18;20.00;86.90
46043;DHT22;32533;-33.854;18.542;2022-09-16T00:45:52;20.00;86.90
46043;DHT22;32533;-33.854;18.542;2022-09-16T00:48:22;20.00;86.90
46043;DHT22;32533;-33.854;18.542;2022-09-16T00:50:58;20.00;87.00
46043;DHT22;32533;-33.854;18.542;2022-09-16T00:53:52;20.00;86.90
46043;DHT22;32533;-33.854;18.542;2022-09-16T00:56:23;19.90;86.70
46043;DHT22;32533;-33.854;18.542;2022-09-16T01:01:29;19.90;86.50
46043;DHT22;32533;-33.854;18.542;2022-09-16T01:04:00;19.90;86.30
46043;DHT22;32533;-33.854;18.542;2022-09-16T01:06:27;19.90;86.20
46043;DHT22;32533;-33.854;18.542;2022-09-16T01:08:55;19.90;86.10
46043;DHT22;32533;-33.854;18.542;2022-09-16T01:11:23;19.80;85.90
46043;DHT22;32533;-33.854;18.542;2022-09-16T01:13:50;19.80;85.90
46043;DHT22;32533;-33.854;18.542;2022-09-16T01:16:29;19.80;85.80
46043;DHT22;32533;-33.854;18.542;2022-09-16T01:19:27;19.70;85.80
46043;DHT22;32533;-33.854;18.542;2022-09-16T01:35:52;19.70;86.00
46043;DHT22;32533;-33.854;18.542;2022-09-16T01:44:01;19.60;86.00
46043;DHT22;32533;-33.854;18.542;2022-09-16T01:46:48;19.60;86.00
46043;DHT22;32533;-33.854;18.542;2022-09-16T01:49:22;19.60;86.00
46043;DHT22;32533;-33.854;18.542;2022-09-16T01:55:17;19.60;85.80
46043;DHT22;32533;-33.854;18.542;2022-09-16T01:57:38;19.60;85.80
46043;DHT22;32533;-33.854;18.542;2022-09-16T02:00:09;19.60;85.70
46043;DHT22;32533;-33.854;18.542;2022-09-16T04:15:00;18.20;80.80
46043;DHT22;32533;-33.854;18.542;2022-09-16T04:17:29;18.30;81.30
46043;DHT22;32533;-33.854;18.542;2022-09-16T04:19:56;18.30;80.90
46043;DHT22;32533;-33.854;18.542;2022-09-16T04:22:23;18.30;80.40
46043;DHT22;32533;-33.854;18.542;2022-09-16T04:24:49;18.30;80.20
46043;DHT22;32533;-33.854;18.542;2022-09-16T04:27:16;18.30;80.00
46043;DHT22;32533;-33.854;18.542;2022-09-16T04:29:42;18.30;79.90
46043;DHT22;32533;-33.854;18.542;2022-09-16T04:32:09;18.30;79.80
46043;DHT22;32533;-33.854;18.542;2022-09-16T04:34:35;18.30;79.60
46043;DHT22;32533;-33.854;18.542;2022-09-16T04:37:02;18.30;79.50
46043;DHT22;32533;-33.854;18.542;2022-09-16T04:39:29;18.30;79.50
46043;DHT22;32533;-33.854;18.542;2022-09-16T04:41:55;18.30;79.40
46043;DHT22;32533;-33.854;18.542;2022-09-16T04:44:22;18.30;79.30
46043;DHT22;32533;-33.854;18.542;2022-09-16T04:46:48;18.30;79.30
46043;DHT22;32533;-33.854;18.542;2022-09-16T04:49:14;18.30;79.40
46043;DHT22;32533;-33.854;18.542;2022-09-16T04:51:41;18.30;79.30
46043;DHT22;32533;-33.854;18.542;2022-09-16T04:54:07;18.30;79.40
46043;DHT22;32533;-33.854;18.542;2022-09-16T04:56:34;18.30;79.50
46043;DHT22;32533;-33.854;18.542;2022-09-16T04:59:02;18.30;79.60
46043;DHT22;32533;-33.854;18.542;2022-09-16T05:01:32;18.30;79.60
46043;DHT22;32533;-33.854;18.542;2022-09-16T05:04:02;18.30;79.70
46043;DHT22;32533;-33.854;18.542;2022-09-16T05:06:31;18.30;79.80
46043;DHT22;32533;-33.854;18.542;2022-09-16T05:08:58;18.30;79.90
46043;DHT22;32533;-33.854;18.542;2022-09-16T05:11:32;18.30;80.10
46043;DHT22;32533;-33.854;18.542;2022-09-16T05:14:00;18.30;80.20
46043;DHT22;32533;-33.854;18.542;2022-09-16T05:16:28;18.30;80.20
46043;DHT22;32533;-33.854;18.542;2022-09-16T05:18:59;18.30;80.30
46043;DHT22;32533;-33.854;18.542;2022-09-16T05:21:27;18.30;80.30
46043;DHT22;32533;-33.854;18.542;2022-09-16T05:23:54;18.30;80.30
46043;DHT22;32533;-33.854;18.542;2022-09-16T05:26:26;18.30;80.60
46043;DHT22;32533;-33.854;18.542;2022-09-16T05:28:53;18.30;80.80
46043;DHT22;32533;-33.854;18.542;2022-09-16T05:31:23;18.30;80.80
46043;DHT22;32533;-33.854;18.542;2022-09-16T05:34:06;18.30;80.70
46043;DHT22;32533;-33.854;18.542;2022-09-16T05:36:36;18.30;80.70
46043;DHT22;32533;-33.854;18.542;2022-09-16T05:39:06;18.40;80.80
46043;DHT22;32533;-33.854;18.542;2022-09-16T05:41:33;18.40;80.70
46043;DHT22;32533;-33.854;18.542;2022-09-16T05:44:00;18.40;80.70
46043;DHT22;32533;-33.854;18.542;2022-09-16T05:46:27;18.40;80.60
46043;DHT22;32533;-33.854;18.542;2022-09-16T05:48:54;18.40;80.60
46043;DHT22;32533;-33.854;18.542;2022-09-16T05:51:22;18.40;80.60
46043;DHT22;32533;-33.854;18.542;2022-09-16T05:53:50;18.40;80.60
46043;DHT22;32533;-33.854;18.542;2022-09-16T05:56:19;18.40;80.70
46043;DHT22;32533;-33.854;18.542;2022-09-16T05:58:47;18.40;80.80
46043;DHT22;32533;-33.854;18.542;2022-09-16T06:01:18;18.40;80.80
46043;DHT22;32533;-33.854;18.542;2022-09-16T06:03:47;18.40;81.00
46043;DHT22;32533;-33.854;18.542;2022-09-16T06:06:30;18.40;81.00
46043;DHT22;32533;-33.854;18.542;2022-09-16T06:08:59;18.40;81.10
46043;DHT22;32533;-33.854;18.542;2022-09-16T06:11:27;18.40;81.10
46043;DHT22;32533;-33.854;18.542;2022-09-16T06:13:58;18.40;81.20
46043;DHT22;32533;-33.854;18.542;2022-09-16T06:16:27;18.40;81.30
46043;DHT22;32533;-33.854;18.542;2022-09-16T06:18:57;18.50;81.50
46043;DHT22;32533;-33.854;18.542;2022-09-16T06:21:24;18.50;81.80
46043;DHT22;32533;-33.854;18.542;2022-09-16T06:23:50;18.50;81.90
46043;DHT22;32533;-33.854;18.542;2022-09-16T06:26:21;18.50;82.20
46043;DHT22;32533;-33.854;18.542;2022-09-16T06:28:48;18.50;82.50
46043;DHT22;32533;-33.854;18.542;2022-09-16T06:31:17;18.50;82.70
46043;DHT22;32533;-33.854;18.542;2022-09-16T06:33:44;18.60;83.10
46043;DHT22;32533;-33.854;18.542;2022-09-16T06:36:14;18.60;83.40
46043;DHT22;32533;-33.854;18.542;2022-09-16T06:38:42;18.60;84.40
46043;DHT22;32533;-33.854;18.542;2022-09-16T06:41:10;18.60;84.00
46043;DHT22;32533;-33.854;18.542;2022-09-16T06:43:37;18.60;84.10
46043;DHT22;32533;-33.854;18.542;2022-09-16T06:46:06;18.70;84.20
46043;DHT22;32533;-33.854;18.542;2022-09-16T06:48:35;18.70;84.60
46043;DHT22;32533;-33.854;18.542;2022-09-16T06:51:15;18.70;84.80
46043;DHT22;32533;-33.854;18.542;2022-09-16T06:53:42;18.80;84.80
46043;DHT22;32533;-33.854;18.542;2022-09-16T06:56:11;18.80;84.70
46043;DHT22;32533;-33.854;18.542;2022-09-16T06:58:40;18.80;84.80
46043;DHT22;32533;-33.854;18.542;2022-09-16T07:01:10;18.80;85.20
46043;DHT22;32533;-33.854;18.542;2022-09-16T07:03:39;18.90;85.50
46043;DHT22;32533;-33.854;18.542;2022-09-16T07:06:06;18.90;85.70
46043;DHT22;32533;-33.854;18.542;2022-09-16T07:08:35;19.00;85.70
46043;DHT22;32533;-33.854;18.542;2022-09-16T07:11:04;18.90;85.60
46043;DHT22;32533;-33.854;18.542;2022-09-16T07:13:32;19.00;85.50
46043;DHT22;32533;-33.854;18.542;2022-09-16T07:16:07;19.00;85.40
46043;DHT22;32533;-33.854;18.542;2022-09-16T07:18:33;19.10;85.40
46043;DHT22;32533;-33.854;18.542;2022-09-16T07:21:05;19.10;85.40
46043;DHT22;32533;-33.854;18.542;2022-09-16T07:23:33;19.10;85.40
46043;DHT22;32533;-33.854;18.542;2022-09-16T07:26:04;19.10;85.30
46043;DHT22;32533;-33.854;18.542;2022-09-16T07:28:32;19.20;85.30
46043;DHT22;32533;-33.854;18.542;2022-09-16T07:31:03;19.20;85.20
46043;DHT22;32533;-33.854;18.542;2022-09-16T07:33:30;19.30;85.10
46043;DHT22;32533;-33.854;18.542;2022-09-16T07:36:01;19.30;85.00
46043;DHT22;32533;-33.854;18.542;2022-09-16T07:38:29;19.30;84.80
46043;DHT22;32533;-33.854;18.542;2022-09-16T07:41:04;19.30;84.60
46043;DHT22;32533;-33.854;18.542;2022-09-16T07:43:31;19.40;84.50
46043;DHT22;32533;-33.854;18.542;2022-09-16T07:45:58;19.40;84.30
46043;DHT22;32533;-33.854;18.542;2022-09-16T07:48:25;19.40;84.20
46043;DHT22;32533;-33.854;18.542;2022-09-16T07:50:55;19.40;84.00
46043;DHT22;32533;-33.854;18.542;2022-09-16T07:53:22;19.40;84.00
46043;DHT22;32533;-33.854;18.542;2022-09-16T07:55:49;19.50;84.00
46043;DHT22;32533;-33.854;18.542;2022-09-16T07:58:15;19.60;83.90
46043;DHT22;32533;-33.854;18.542;2022-09-16T08:00:46;19.60;83.70
46043;DHT22;32533;-33.854;18.542;2022-09-16T08:03:13;19.60;83.40
46043;DHT22;32533;-33.854;18.542;2022-09-16T08:05:40;19.70;83.50
46043;DHT22;32533;-33.854;18.542;2022-09-16T08:08:07;19.70;83.60
46043;DHT22;32533;-33.854;18.542;2022-09-16T08:10:34;19.70;83.60
46043;DHT22;32533;-33.854;18.542;2022-09-16T08:13:03;19.80;83.60
46043;DHT22;32533;-33.854;18.542;2022-09-16T08:15:30;19.80;83.50
46043;DHT22;32533;-33.854;18.542;2022-09-16T08:17:56;19.80;83.60
46043;DHT22;32533;-33.854;18.542;2022-09-16T08:20:23;19.80;83.80
46043;DHT22;32533;-33.854;18.542;2022-09-16T08:22:51;19.90;83.80
46043;DHT22;32533;-33.854;18.542;2022-09-16T08:25:18;19.90;83.60
46043;DHT22;32533;-33.854;18.542;2022-09-16T08:27:44;19.90;83.40
46043;DHT22;32533;-33.854;18.542;2022-09-16T08:30:11;19.90;83.40
46043;DHT22;32533;-33.854;18.542;2022-09-16T08:32:38;19.90;83.30
46043;DHT22;32533;-33.854;18.542;2022-09-16T08:35:04;20.00;83.40
46043;DHT22;32533;-33.854;18.542;2022-09-16T08:37:31;20.00;83.20
46043;DHT22;32533;-33.854;18.542;2022-09-16T08:39:59;20.00;83.10
46043;DHT22;32533;-33.854;18.542;2022-09-16T08:48:40;20.00;82.30
46043;DHT22;32533;-33.854;18.542;2022-09-16T08:51:14;20.10;82.00
46043;DHT22;32533;-33.854;18.542;2022-09-16T08:53:44;20.10;81.80
46043;DHT22;32533;-33.854;18.542;2022-09-16T08:56:18;20.10;81.50
46043;DHT22;32533;-33.854;18.542;2022-09-16T08:58:48;20.10;81.20
46043;DHT22;32533;-33.854;18.542;2022-09-16T09:01:23;20.10;80.90
46043;DHT22;32533;-33.854;18.542;2022-09-16T09:03:52;20.10;80.50
46043;DHT22;32533;-33.854;18.542;2022-09-16T09:06:29;20.10;80.00
46043;DHT22;32533;-33.854;18.542;2022-09-16T09:17:08;20.20;78.70
46043;DHT22;32533;-33.854;18.542;2022-09-16T09:37:05;20.40;76.10
46043;DHT22;32533;-33.854;18.542;2022-09-16T09:42:59;20.50;75.80
46043;DHT22;32533;-33.854;18.542;2022-09-16T09:48:31;20.50;75.80
46043;DHT22;32533;-33.854;18.542;2022-09-16T09:51:27;20.60;75.80
46043;DHT22;32533;-33.854;18.542;2022-09-16T09:53:56;20.70;76.00
46043;DHT22;32533;-33.854;18.542;2022-09-16T09:56:29;20.80;76.00
46043;DHT22;32533;-33.854;18.542;2022-09-16T09:59:02;20.80;75.60
46043;DHT22;32533;-33.854;18.542;2022-09-16T10:01:30;20.90;75.30
46043;DHT22;32533;-33.854;18.542;2022-09-16T10:03:57;20.90;74.70
46043;DHT22;32533;-33.854;18.542;2022-09-16T12:59:05;22.50;67.20
46043;DHT22;32533;-33.854;18.542;2022-09-16T13:01:44;22.60;67.40
46043;DHT22;32533;-33.854;18.542;2022-09-16T13:04:15;22.60;67.40
46043;DHT22;32533;-33.854;18.542;2022-09-16T13:06:51;22.60;67.10
46043;DHT22;32533;-33.854;18.542;2022-09-16T13:09:22;22.50;67.00
46043;DHT22;32533;-33.854;18.542;2022-09-16T13:11:58;22.50;67.10
46043;DHT22;32533;-33.854;18.542;2022-09-16T13:14:31;22.50;67.60
46043;DHT22;32533;-33.854;18.542;2022-09-16T13:17:00;22.50;67.80
46043;DHT22;32533;-33.854;18.542;2022-09-16T13:22:28;22.50;67.00
46043;DHT22;32533;-33.854;18.542;2022-09-16T13:28:23;22.50;66.90
46043;DHT22;32533;-33.854;18.542;2022-09-16T13:30:53;22.60;67.10
46043;DHT22;32533;-33.854;18.542;2022-09-16T13:33:26;22.60;66.80
46043;DHT22;32533;-33.854;18.542;2022-09-16T13:38:49;22.60;66.40
46043;DHT22;32533;-33.854;18.542;2022-09-16T13:41:38;22.60;66.20
46043;DHT22;32533;-33.854;18.542;2022-09-16T13:49:55;22.60;65.80
46043;DHT22;32533;-33.854;18.542;2022-09-16T13:52:31;22.60;65.70
46043;DHT22;32533;-33.854;18.542;2022-09-16T13:55:00;22.60;65.60
46043;DHT22;32533;-33.854;18.542;2022-09-16T13:57:40;22.60;65.50
46043;DHT22;32533;-33.854;18.542;2022-09-16T14:08:45;22.50;66.00
46043;DHT22;32533;-33.854;18.542;2022-09-16T14:11:31;22.50;66.00
46043;DHT22;32533;-33.854;18.542;2022-09-16T14:14:11;22.50;66.00
46043;DHT22;32533;-33.854;18.542;2022-09-16T14:16:41;22.50;66.00
46043;DHT22;32533;-33.854;18.542;2022-09-16T14:21:40;22.40;66.10
46043;DHT22;32533;-33.854;18.542;2022-09-16T14:26:56;22.40;66.10
46043;DHT22;32533;-33.854;18.542;2022-09-16T14:29:23;22.30;67.10
46043;DHT22;32533;-33.854;18.542;2022-09-16T14:31:54;22.30;67.90
46043;DHT22;32533;-33.854;18.542;2022-09-16T14:34:29;22.30;68.30
46043;DHT22;32533;-33.854;18.542;2022-09-16T14:36:56;22.30;68.50
46043;DHT22;32533;-33.854;18.542;2022-09-16T14:39:24;22.30;69.00
46043;DHT22;32533;-33.854;18.542;2022-09-16T14:46:55;22.20;68.60
46043;DHT22;32533;-33.854;18.542;2022-09-16T14:49:23;22.20;69.00
46043;DHT22;32533;-33.854;18.542;2022-09-16T14:52:21;22.10;68.90
46043;DHT22;32533;-33.854;18.542;2022-09-16T14:54:49;22.10;68.90
46043;DHT22;32533;-33.854;18.542;2022-09-16T14:57:22;22.10;69.00
46043;DHT22;32533;-33.854;18.542;2022-09-16T14:59:55;22.00;69.10
46043;DHT22;32533;-33.854;18.542;2022-09-16T15:02:32;21.90;69.30
46043;DHT22;32533;-33.854;18.542;2022-09-16T15:05:25;21.90;69.40
46043;DHT22;32533;-33.854;18.542;2022-09-16T15:08:03;21.80;69.40
46043;DHT22;32533;-33.854;18.542;2022-09-16T15:10:32;21.70;69.70
46043;DHT22;32533;-33.854;18.542;2022-09-16T15:13:09;21.60;69.80
46043;DHT22;32533;-33.854;18.542;2022-09-16T15:15:48;21.60;70.40
46043;DHT22;32533;-33.854;18.542;2022-09-16T15:18:29;21.50;69.80
46043;DHT22;32533;-33.854;18.542;2022-09-16T15:21:19;21.50;69.90
46043;DHT22;32533;-33.854;18.542;2022-09-16T15:23:50;21.50;70.00
46043;DHT22;32533;-33.854;18.542;2022-09-16T15:26:39;21.40;70.10
46043;DHT22;32533;-33.854;18.542;2022-09-16T15:31:43;21.40;71.30
46043;DHT22;32533;-33.854;18.542;2022-09-16T15:36:55;21.40;71.00
46043;DHT22;32533;-33.854;18.542;2022-09-16T15:39:27;21.40;71.10
46043;DHT22;32533;-33.854;18.542;2022-09-16T15:47:49;21.30;71.60
46043;DHT22;32533;-33.854;18.542;2022-09-16T15:50:18;21.30;71.70
46043;DHT22;32533;-33.854;18.542;2022-09-16T15:53:06;21.20;71.90
46043;DHT22;32533;-33.854;18.542;2022-09-16T15:58:18;21.20;72.60
46043;DHT22;32533;-33.854;18.542;2022-09-16T16:03:31;21.20;73.20
46043;DHT22;32533;-33.854;18.542;2022-09-16T16:06:01;21.10;73.20
46043;DHT22;32533;-33.854;18.542;2022-09-16T16:11:10;21.10;74.00
46043;DHT22;32533;-33.854;18.542;2022-09-16T16:13:37;21.10;73.40
46043;DHT22;32533;-33.854;18.542;2022-09-16T16:16:07;21.10;73.40
46043;DHT22;32533;-33.854;18.542;2022-09-16T16:18:35;21.00;73.50
46043;DHT22;32533;-33.854;18.542;2022-09-16T16:21:07;21.00;73.50
46043;DHT22;32533;-33.854;18.542;2022-09-16T16:23:35;21.00;73.50
46043;DHT22;32533;-33.854;18.542;2022-09-16T16:26:06;21.00;73.40
46043;DHT22;32533;-33.854;18.542;2022-09-16T16:28:33;21.00;73.30
46043;DHT22;32533;-33.854;18.542;2022-09-16T16:31:15;21.00;74.00
46043;DHT22;32533;-33.854;18.542;2022-09-16T16:33:43;21.00;73.20
46043;DHT22;32533;-33.854;18.542;2022-09-16T16:36:15;20.90;73.10
46043;DHT22;32533;-33.854;18.542;2022-09-16T16:38:42;20.90;73.10
46043;DHT22;32533;-33.854;18.542;2022-09-16T16:41:09;20.90;73.20
46043;DHT22;32533;-33.854;18.542;2022-09-16T16:43:38;20.90;73.10
46043;DHT22;32533;-33.854;18.542;2022-09-16T16:46:05;20.90;73.10
46043;DHT22;32533;-33.854;18.542;2022-09-16T16:48:31;20.80;73.20
46043;DHT22;32533;-33.854;18.542;2022-09-16T16:51:05;20.80;73.20
46043;DHT22;32533;-33.854;18.542;2022-09-16T16:53:33;20.80;73.20
46043;DHT22;32533;-33.854;18.542;2022-09-16T16:56:10;20.80;73.10
46043;DHT22;32533;-33.854;18.542;2022-09-16T16:58:38;20.80;73.10
46043;DHT22;32533;-33.854;18.542;2022-09-16T17:01:18;20.80;73.20
46043;DHT22;32533;-33.854;18.542;2022-09-16T17:03:46;20.80;73.10
46043;DHT22;32533;-33.854;18.542;2022-09-16T17:06:15;20.80;73.00
46043;DHT22;32533;-33.854;18.542;2022-09-16T17:08:42;20.70;73.30
46043;DHT22;32533;-33.854;18.542;2022-09-16T17:13:41;20.70;73.80
46043;DHT22;32533;-33.854;18.542;2022-09-16T17:16:09;20.70;74.10
46043;DHT22;32533;-33.854;18.542;2022-09-16T17:18:37;20.70;74.20
46043;DHT22;32533;-33.854;18.542;2022-09-16T17:21:09;20.60;74.10
46043;DHT22;32533;-33.854;18.542;2022-09-16T17:23:37;20.60;74.10
46043;DHT22;32533;-33.854;18.542;2022-09-16T17:26:04;20.60;74.30
46043;DHT22;32533;-33.854;18.542;2022-09-16T17:28:31;20.60;74.40
46043;DHT22;32533;-33.854;18.542;2022-09-16T17:30:58;20.50;74.40
46043;DHT22;32533;-33.854;18.542;2022-09-16T17:33:24;20.50;74.60
46043;DHT22;32533;-33.854;18.542;2022-09-16T17:36:05;20.50;74.70
46043;DHT22;32533;-33.854;18.542;2022-09-16T17:38:32;20.50;75.10
46043;DHT22;32533;-33.854;18.542;2022-09-16T17:41:07;20.50;75.30
46043;DHT22;32533;-33.854;18.542;2022-09-16T17:43:34;20.50;75.50
46043;DHT22;32533;-33.854;18.542;2022-09-16T17:46:03;20.50;75.90
46043;DHT22;32533;-33.854;18.542;2022-09-16T17:48:30;20.50;76.20
46043;DHT22;32533;-33.854;18.542;2022-09-16T17:50:59;20.50;76.60
46043;DHT22;32533;-33.854;18.542;2022-09-16T17:53:28;20.50;76.50
46043;DHT22;32533;-33.854;18.542;2022-09-16T17:56:14;20.50;76.60
46043;DHT22;32533;-33.854;18.542;2022-09-16T17:58:45;20.40;76.70
46043;DHT22;32533;-33.854;18.542;2022-09-16T18:01:17;20.40;76.30
46043;DHT22;32533;-33.854;18.542;2022-09-16T20:16:39;19.60;80.60
46043;DHT22;32533;-33.854;18.542;2022-09-16T20:19:08;19.70;79.90
46043;DHT22;32533;-33.854;18.542;2022-09-16T20:21:35;19.70;79.60
46043;DHT22;32533;-33.854;18.542;2022-09-16T20:24:04;19.70;79.20
46043;DHT22;32533;-33.854;18.542;2022-09-16T20:26:34;19.80;78.90
46043;DHT22;32533;-33.854;18.542;2022-09-16T20:29:01;19.80;78.70
46043;DHT22;32533;-33.854;18.542;2022-09-16T20:31:31;19.80;78.40
46043;DHT22;32533;-33.854;18.542;2022-09-16T20:33:57;19.80;78.10
46043;DHT22;32533;-33.854;18.542;2022-09-16T20:36:25;19.80;78.00
46043;DHT22;32533;-33.854;18.542;2022-09-16T20:38:52;19.80;77.80
46043;DHT22;32533;-33.854;18.542;2022-09-16T20:41:24;19.80;77.90
46043;DHT22;32533;-33.854;18.542;2022-09-16T20:43:51;19.80;77.90
46043;DHT22;32533;-33.854;18.542;2022-09-16T20:46:25;19.80;78.10
46043;DHT22;32533;-33.854;18.542;2022-09-16T20:48:54;19.80;78.10
46043;DHT22;32533;-33.854;18.542;2022-09-16T20:51:24;19.80;78.00
46043;DHT22;32533;-33.854;18.542;2022-09-16T20:53:52;19.80;77.60
46043;DHT22;32533;-33.854;18.542;2022-09-16T20:56:20;19.80;77.10
46043;DHT22;32533;-33.854;18.542;2022-09-16T20:58:47;19.80;76.70
46043;DHT22;32533;-33.854;18.542;2022-09-16T21:01:22;19.80;76.30
46043;DHT22;32533;-33.854;18.542;2022-09-16T21:03:54;19.70;76.10
46043;DHT22;32533;-33.854;18.542;2022-09-16T21:06:21;19.70;75.90
46043;DHT22;32533;-33.854;18.542;2022-09-16T21:08:55;19.70;75.90
46043;DHT22;32533;-33.854;18.542;2022-09-16T21:11:23;19.70;75.80
46043;DHT22;32533;-33.854;18.542;2022-09-16T21:13:57;19.60;75.70
46043;DHT22;32533;-33.854;18.542;2022-09-16T21:16:25;19.70;75.70
46043;DHT22;32533;-33.854;18.542;2022-09-16T21:18:56;19.60;75.60
46043;DHT22;32533;-33.854;18.542;2022-09-16T21:21:24;19.60;75.70
46043;DHT22;32533;-33.854;18.542;2022-09-16T21:23:52;19.60;75.70
46043;DHT22;32533;-33.854;18.542;2022-09-16T21:26:22;19.60;75.90
46043;DHT22;32533;-33.854;18.542;2022-09-16T21:31:22;19.50;76.80
46043;DHT22;32533;-33.854;18.542;2022-09-16T21:33:50;19.50;77.00
46043;DHT22;32533;-33.854;18.542;2022-09-16T21:36:20;19.40;76.60
46043;DHT22;32533;-33.854;18.542;2022-09-16T21:38:47;19.40;76.30
46043;DHT22;32533;-33.854;18.542;2022-09-16T21:41:16;19.40;75.90
46043;DHT22;32533;-33.854;18.542;2022-09-16T21:43:45;19.40;75.80
46043;DHT22;32533;-33.854;18.542;2022-09-16T21:46:15;19.30;75.50
46043;DHT22;32533;-33.854;18.542;2022-09-16T21:48:42;19.30;75.40
46043;DHT22;32533;-33.854;18.542;2022-09-16T21:51:11;19.30;75.30
46043;DHT22;32533;-33.854;18.542;2022-09-16T21:53:38;19.30;75.40
46043;DHT22;32533;-33.854;18.542;2022-09-16T21:56:14;19.30;75.50
46043;DHT22;32533;-33.854;18.542;2022-09-16T21:58:41;19.30;75.90
46043;DHT22;32533;-33.854;18.542;2022-09-16T22:01:15;19.30;76.00
46043;DHT22;32533;-33.854;18.542;2022-09-16T22:03:44;19.30;76.00
46043;DHT22;32533;-33.854;18.542;2022-09-16T22:06:13;19.30;76.00
46043;DHT22;32533;-33.854;18.542;2022-09-16T22:08:42;19.30;75.90
46043;DHT22;32533;-33.854;18.542;2022-09-16T22:11:12;19.30;75.80
46043;DHT22;32533;-33.854;18.542;2022-09-16T22:13:39;19.30;76.00
46043;DHT22;32533;-33.854;18.542;2022-09-16T22:16:07;19.30;76.30
46043;DHT22;32533;-33.854;18.542;2022-09-16T22:18:35;19.30;76.40
46043;DHT22;32533;-33.854;18.542;2022-09-16T22:21:13;19.30;76.60
46043;DHT22;32533;-33.854;18.542;2022-09-16T22:23:40;19.30;76.50
46043;DHT22;32533;-33.854;18.542;2022-09-16T22:26:12;19.30;76.60
46043;DHT22;32533;-33.854;18.542;2022-09-16T22:28:39;19.30;76.40
46043;DHT22;32533;-33.854;18.542;2022-09-16T22:31:14;19.30;76.50
46043;DHT22;32533;-33.854;18.542;2022-09-16T22:33:42;19.20;76.40
46043;DHT22;32533;-33.854;18.542;2022-09-16T22:36:11;19.20;76.40
46043;DHT22;32533;-33.854;18.542;2022-09-16T22:38:38;19.20;76.40
46043;DHT22;32533;-33.854;18.542;2022-09-16T22:41:06;19.20;76.50
46043;DHT22;32533;-33.854;18.542;2022-09-16T22:43:41;19.20;76.40
46043;DHT22;32533;-33.854;18.542;2022-09-16T22:46:12;19.30;76.40
46043;DHT22;32533;-33.854;18.542;2022-09-16T22:48:41;19.20;76.70
46043;DHT22;32533;-33.854;18.542;2022-09-16T22:51:10;19.20;76.80
46043;DHT22;32533;-33.854;18.542;2022-09-16T22:53:36;19.30;76.80
46043;DHT22;32533;-33.854;18.542;2022-09-16T22:56:05;19.30;76.70
46043;DHT22;32533;-33.854;18.542;2022-09-16T22:58:32;19.20;76.50
46043;DHT22;32533;-33.854;18.542;2022-09-16T23:03:36;19.20;76.40
46043;DHT22;32533;-33.854;18.542;2022-09-16T23:06:05;19.20;76.60
46043;DHT22;32533;-33.854;18.542;2022-09-16T23:08:38;19.20;76.70
46043;DHT22;32533;-33.854;18.542;2022-09-16T23:11:10;19.10;76.60
46043;DHT22;32533;-33.854;18.542;2022-09-16T23:13:40;19.10;76.70
46043;DHT22;32533;-33.854;18.542;2022-09-16T23:16:36;19.10;76.60
46043;DHT22;32533;-33.854;18.542;2022-09-16T23:19:06;19.10;76.60
46043;DHT22;32533;-33.854;18.542;2022-09-16T23:21:32;19.10;76.60
46043;DHT22;32533;-33.854;18.542;2022-09-16T23:24:01;19.00;76.50
46043;DHT22;32533;-33.854;18.542;2022-09-16T23:26:31;19.00;76.60
46043;DHT22;32533;-33.854;18.542;2022-09-16T23:28:58;19.00;76.90
46043;DHT22;32533;-33.854;18.542;2022-09-16T23:31:31;19.00;77.00
46043;DHT22;32533;-33.854;18.542;2022-09-16T23:33:58;19.00;77.00
46043;DHT22;32533;-33.854;18.542;2022-09-16T23:36:25;19.00;77.30
46043;DHT22;32533;-33.854;18.542;2022-09-16T23:38:53;19.00;77.50
46043;DHT22;32533;-33.854;18.542;2022-09-16T23:41:24;19.00;77.40
46043;DHT22;32533;-33.854;18.542;2022-09-16T23:43:54;19.00;77.30
46043;DHT22;32533;-33.854;18.542;2022-09-16T23:46:23;19.00;77.10
46043;DHT22;32533;-33.854;18.542;2022-09-16T23:48:50;19.00;77.20
46043;DHT22;32533;-33.854;18.542;2022-09-16T23:51:18;18.90;77.30
46043;DHT22;32533;-33.854;18.542;2022-09-16T23:53:46;18.90;77.40
46043;DHT22;32533;-33.854;18.542;2022-09-16T23:56:15;18.90;77.50
46043;DHT22;32533;-33.854;18.542;2022-09-16T23:58:42;18.90;77.40
